ADDS METAR Data INFO
IDs: Format: Raw Decoded Include TAF

Data at: 2342 UTC 15 Dec 2017

KALM 152335Z AUTO 33004KT 10SM CLR 09/M08 A3019 RMK AO2
KALM 152315Z AUTO 33004KT 10SM CLR 09/M08 A3020 RMK AO2
KALM 152255Z AUTO 34004KT 10SM VCTS CLR 09/M08 A3020 RMK AO2 LTG DSNT SE AND S
KALM 152235Z AUTO 32003KT 10SM CLR 09/M08 A3021 RMK AO2
KALM 152215Z AUTO 30003KT 10SM VCTS CLR 09/M08 A3022 RMK AO2 LTG DSNT SE AND S
KALM 152155Z AUTO 34006KT 10SM CLR 09/M08 A3022 RMK AO2
KALM 152135Z AUTO 01003KT 10SM CLR 09/M08 A3023 RMK AO2
KALM 152115Z AUTO 23003KT 10SM CLR 09/M08 A3024 RMK AO2
KALM 152055Z AUTO 18003KT 10SM CLR 09/M08 A3025 RMK AO2
KALM 152035Z AUTO 25004KT 10SM CLR 09/M08 A3026 RMK AO2
KALM 152015Z AUTO 19003KT 10SM CLR 08/M08 A3027 RMK AO2
KALM 151955Z AUTO 21004KT 10SM CLR 08/M08 A3028 RMK AO2
KALM 151935Z AUTO 24008KT 10SM CLR 08/M08 A3029 RMK AO2
KALM 151915Z AUTO 24006KT 10SM CLR 08/M08 A3031 RMK AO2
KALM 151855Z AUTO 22007KT 10SM CLR 08/M08 A3032 RMK AO2
KALM 151835Z AUTO 20009KT 10SM CLR 07/M08 A3033 RMK AO2
KALM 151815Z AUTO 20007KT 10SM CLR 07/M07 A3035 RMK AO2
KALM 151755Z AUTO 20009KT 10SM CLR 07/M08 A3036 RMK AO2
KALM 151735Z AUTO 20009KT 10SM CLR 05/M08 A3037 RMK AO2
KALM 151715Z AUTO 21010KT 10SM VCTS CLR 05/M08 A3037 RMK AO2 LTG DSNT SE AND S
KALM 151655Z AUTO 22010KT 10SM CLR 05/M07 A3037 RMK AO2
KALM 151635Z AUTO 19010KT 10SM CLR 04/M07 A3037 RMK AO2
KALM 151615Z AUTO 18008KT 10SM VCTS CLR 03/M08 A3037 RMK AO2 LTG DSNT SE AND S
KALM 151555Z AUTO 16006KT 10SM CLR 02/M07 A3036 RMK AO2
KALM 151535Z AUTO 16005KT 10SM CLR 00/M08 A3036 RMK AO2
KALM 151515Z AUTO 14005KT 10SM CLR 00/M08 A3035 RMK AO2
KALM 151455Z AUTO 12006KT 10SM CLR M03/M09 A3036 RMK AO2
KALM 151435Z AUTO 16005KT 10SM CLR M04/M10 A3035 RMK AO2
KALM 151415Z AUTO 15003KT 10SM CLR M05/M10 A3035 RMK AO2
KALM 151355Z AUTO 15004KT 10SM CLR M05/M10 A3034 RMK AO2
KALM 151335Z AUTO 17005KT 10SM CLR M04/M10 A3034 RMK AO2
KALM 151315Z AUTO 18005KT 10SM CLR M03/M09 A3033 RMK AO2
KALM 151255Z AUTO 18006KT 10SM CLR M01/M09 A3033 RMK AO2
KALM 151235Z AUTO 16005KT 10SM CLR M02/M09 A3032 RMK AO2
KALM 151215Z AUTO 17008KT 10SM VCTS CLR M01/M09 A3032 RMK AO2 LTG DSNT SE AND S
KALM 151155Z AUTO 16007KT 10SM CLR M02/M09 A3031 RMK AO2
KALM 151135Z AUTO 15007KT 10SM CLR M01/M08 A3030 RMK AO2
KALM 151115Z AUTO 17008KT 10SM CLR 00/M08 A3030 RMK AO2
KALM 151055Z AUTO 17008KT 10SM CLR 00/M09 A3030 RMK AO2
KALM 151035Z AUTO 17010KT 10SM CLR 00/M09 A3030 RMK AO2
KALM 151015Z AUTO 16008KT 10SM CLR 00/M08 A3030 RMK AO2
KALM 150955Z AUTO 14008KT 10SM VCTS CLR 00/M09 A3030 RMK AO2 LTG DSNT SE AND S
KALM 150935Z AUTO 15008KT 10SM CLR 00/M09 A3030 RMK AO2
KALM 150915Z AUTO 14009KT 10SM CLR M01/M09 A3029 RMK AO2
KALM 150855Z AUTO 15008KT 10SM CLR 00/M09 A3028 RMK AO2
KALM 150835Z AUTO 18010KT 10SM CLR 00/M09 A3028 RMK AO2
KALM 150815Z AUTO 17010KT 10SM CLR M02/M09 A3028 RMK AO2
KALM 150755Z AUTO 14007KT 10SM CLR M02/M09 A3027 RMK AO2
KALM 150735Z AUTO 18008KT 10SM CLR M02/M09 A3027 RMK AO2
KALM 150715Z AUTO 19007KT 10SM CLR 00/M10 A3027 RMK AO2
KALM 150655Z AUTO 13006KT 10SM CLR 02/M09 A3026 RMK AO2
KALM 150635Z AUTO 11003KT 10SM CLR 04/M09 A3026 RMK AO2
KALM 150615Z AUTO 05004KT 10SM CLR 05/M09 A3026 RMK AO2
KALM 150555Z AUTO 07007KT 10SM CLR 05/M09 A3025 RMK AO2
KALM 150535Z AUTO 07006KT 10SM CLR 03/M10 A3025 RMK AO2
KALM 150515Z AUTO 06005KT 10SM CLR 03/M10 A3025 RMK AO2
KALM 150455Z AUTO 04004KT 10SM CLR 03/M10 A3024 RMK AO2
KALM 150435Z AUTO 04005KT 10SM CLR 03/M10 A3024 RMK AO2
KALM 150415Z AUTO 03004KT 10SM CLR 03/M10 A3023 RMK AO2
KALM 150355Z AUTO 36005KT 10SM CLR 04/M10 A3022 RMK AO2
KALM 150335Z AUTO 36005KT 10SM CLR 05/M09 A3021 RMK AO2
KALM 150315Z AUTO 09006KT 10SM CLR 04/M09 A3020 RMK AO2
KALM 150255Z AUTO 34005KT 10SM CLR 05/M09 A3018 RMK AO2
KALM 150235Z AUTO 31006KT 10SM CLR 05/M09 A3016 RMK AO2
KALM 150215Z AUTO 31010KT 10SM CLR 07/M09 A3015 RMK AO2
KALM 150155Z AUTO 33006KT 10SM CLR 07/M09 A3014 RMK AO2
KALM 150135Z AUTO 31008KT 10SM CLR 07/M10 A3012 RMK AO2
KALM 150115Z AUTO 31005KT 10SM CLR 09/M09 A3011 RMK AO2
KALM 150055Z AUTO 32004KT 10SM CLR 09/M09 A3010 RMK AO2
KALM 150035Z AUTO 32006KT 10SM CLR 09/M09 A3008 RMK AO2
KALM 150015Z AUTO 31005KT 10SM CLR 11/M08 A3007 RMK AO2 LTG DSNT SW
KALM 142355Z AUTO 32005KT 10SM CLR 12/M08 A3006 RMK AO2
KALM 142335Z AUTO 28005KT 10SM CLR 13/M08 A3006 RMK AO2
KALM 142315Z AUTO 31004KT 10SM CLR 14/M08 A3005 RMK AO2
KALM 142255Z AUTO 00000KT 10SM CLR 14/M08 A3004 RMK AO2
KALM 142235Z AUTO 30003KT 10SM CLR 14/M08 A3005 RMK AO2
KALM 142215Z AUTO 00000KT 10SM CLR 14/M08 A3005 RMK AO2
KALM 142155Z AUTO 30006KT 10SM CLR 14/M07 A3005 RMK AO2
KALM 142135Z AUTO 36006KT 10SM CLR 14/M08 A3005 RMK AO2
KALM 142115Z AUTO 33005KT 10SM CLR 14/M08 A3004 RMK AO2
KALM 142055Z AUTO 00000KT 10SM CLR 13/M08 A3004 RMK AO2
KALM 142035Z AUTO 27005KT 10SM CLR 14/M07 A3004 RMK AO2
KALM 142015Z AUTO 00000KT 10SM CLR 13/M07 A3004 RMK AO2
KALM 141955Z AUTO 24004KT 10SM CLR 13/M07 A3004 RMK AO2
KALM 141935Z AUTO 23004KT 10SM CLR 13/M06 A3004 RMK AO2
KALM 141915Z AUTO 20005KT 10SM CLR 13/M06 A3004 RMK AO2
KALM 141855Z AUTO 18006KT 10SM VCTS CLR 12/M06 A3005 RMK AO2 LTG DSNT SE AND S
KALM 141835Z AUTO 20005KT 10SM CLR 12/M05 A3006 RMK AO2
KALM 141815Z AUTO 25004KT 10SM CLR 11/M05 A3007 RMK AO2
KALM 141755Z AUTO 28003KT 10SM VCTS CLR 10/M05 A3007 RMK AO2 LTG DSNT SE AND S
KALM 141735Z AUTO 00000KT 10SM CLR 09/M04 A3008 RMK AO2
KALM 141715Z AUTO 00000KT 10SM CLR 08/M04 A3008 RMK AO2
KALM 141655Z AUTO 00000KT 10SM CLR 08/M05 A3007 RMK AO2
KALM 141635Z AUTO 00000KT 10SM CLR 08/M04 A3007 RMK AO2
KALM 141615Z AUTO 00000KT 10SM CLR 07/M07 A3006 RMK AO2
KALM 141555Z AUTO 00000KT 10SM CLR 05/M08 A3005 RMK AO2
KALM 141535Z AUTO 00000KT 10SM CLR 04/M08 A3004 RMK AO2
KALM 141515Z AUTO 00000KT 10SM CLR 03/M09 A3004 RMK AO2
KALM 141455Z AUTO 00000KT 10SM CLR 00/M10 A3004 RMK AO2
KALM 141435Z AUTO 00000KT 10SM CLR 00/M11 A3003 RMK AO2
KALM 141415Z AUTO 00000KT 10SM CLR M03/M12 A3002 RMK AO2
KALM 141355Z AUTO 00000KT 10SM CLR M03/M12 A3002 RMK AO2
KALM 141335Z AUTO 14004KT 10SM CLR M03/M12 A3001 RMK AO2
KALM 141315Z AUTO 00000KT 10SM CLR M02/M12 A3001 RMK AO2
KALM 141255Z AUTO 35005KT 10SM CLR 00/M12 A3000 RMK AO2
KALM 141235Z AUTO 35005KT 10SM CLR M02/M13 A3000 RMK AO2
KALM 141215Z AUTO 01003KT 10SM CLR M02/M13 A2999 RMK AO2
KALM 141155Z AUTO 34004KT 10SM CLR M01/M13 A2999 RMK AO2